Sohar Majis, Oman
Current Conditions -  °F | °C
As of 7:00 PM on Tuesday 21 Oct 2014 (Local Time) from OMFJ Reporting Station
Clear Clear  
Wind Chill: 86°   Ceiling: Unl
Heat Index: 97°   Visibility: 5mi
Dew Point: 77°   Wind: 5mph
Humidity: 74%   Direction: 120°ESE
Pressure: 29.94"   Gusts: NA
Location:  24.47°N, 56.63°E
Report Text: OMFJ 211500Z 12004KT 8000 NSC 30/25 Q1014 A2994
Loading
Personal Weather Stations






























Interactive Weather Map
Tropical Storm Tracking
New forecast layout! Learn more

10-Day Weather Forecast

Advertisements
Track Severe Weather on mobile